createdAt,value
2017-12-14T00:00:39.336Z,1.3
2017-12-14T00:01:59.068Z,1.4
2017-12-14T00:03:21.329Z,1.4
2017-12-14T00:04:41.101Z,1.4
2017-12-14T00:06:03.334Z,1.4
2017-12-14T00:07:23.050Z,1.3
2017-12-14T00:08:42.801Z,1.3
2017-12-14T00:10:02.500Z,1.3
2017-12-14T00:11:22.256Z,1.3
2017-12-14T00:12:52.111Z,1.3
2017-12-14T00:14:14.409Z,1.4
2017-12-14T00:15:36.683Z,1.3
2017-12-14T00:16:56.480Z,1.3
2017-12-14T00:18:16.218Z,1.3
2017-12-14T00:19:38.508Z,1.3
2017-12-14T00:21:08.328Z,1.3
2017-12-14T00:22:28.162Z,1.3
2017-12-14T00:23:47.867Z,1.3
2017-12-14T00:25:07.594Z,1.3
2017-12-14T00:26:27.293Z,1.3
2017-12-14T00:27:47.015Z,1.4
2017-12-14T00:29:06.741Z,1.3
2017-12-14T00:30:31.546Z,1.3
2017-12-14T00:31:51.275Z,1.3
2017-12-14T00:33:16.040Z,1.3
2017-12-14T00:34:43.394Z,1.3
2017-12-14T00:36:03.115Z,1.2
2017-12-14T00:37:43.140Z,1.1
2017-12-14T00:39:05.403Z,1.1
2017-12-14T00:40:25.109Z,1
2017-12-14T00:41:44.864Z,1
2017-12-14T00:43:04.594Z,0.8
2017-12-14T00:44:24.380Z,0.8
2017-12-14T00:45:51.707Z,0.8
2017-12-14T00:47:11.437Z,0.8
2017-12-14T00:48:48.915Z,0.9
2017-12-14T00:50:11.152Z,0.9
2017-12-14T00:51:33.391Z,0.8
2017-12-14T00:53:03.246Z,0.9
2017-12-14T00:54:28.058Z,1
2017-12-14T00:55:47.760Z,1
2017-12-14T00:57:07.461Z,0.9
2017-12-14T00:58:29.721Z,1
2017-12-14T00:59:49.418Z,1.1
2017-12-14T01:01:11.703Z,1.2
2017-12-14T01:02:31.502Z,1.2
2017-12-14T01:03:56.317Z,1.2
2017-12-14T01:05:16.026Z,1.3
2017-12-14T01:06:43.362Z,1.3
2017-12-14T01:08:10.719Z,1.4
2017-12-14T01:09:32.977Z,1.4
2017-12-14T01:11:00.299Z,1.4
2017-12-14T01:12:27.640Z,1.4
2017-12-14T01:13:57.468Z,1.5
2017-12-14T01:15:22.246Z,1.5
2017-12-14T01:16:41.961Z,1.5
2017-12-14T01:18:01.747Z,1.6
2017-12-14T01:19:21.490Z,1.6
2017-12-14T01:20:46.286Z,1.6
2017-12-14T01:22:08.513Z,1.6
2017-12-14T01:23:33.297Z,1.6
2017-12-14T01:24:58.087Z,1.6
2017-12-14T01:26:17.806Z,1.6
2017-12-14T01:27:37.514Z,1.6
2017-12-14T01:28:57.228Z,1.6
2017-12-14T01:30:16.934Z,1.7
2017-12-14T01:31:41.785Z,1.7
2017-12-14T01:33:01.517Z,1.7
2017-12-14T01:34:21.263Z,1.7
2017-12-14T01:35:43.497Z,1.7
2017-12-14T01:37:18.387Z,1.7
2017-12-14T01:38:38.132Z,1.7
2017-12-14T01:40:00.373Z,1.7
2017-12-14T01:41:20.087Z,1.7
2017-12-14T01:42:39.813Z,1.7
2017-12-14T01:43:59.523Z,1.7
2017-12-14T01:45:19.290Z,1.7
2017-12-14T01:46:44.104Z,1.7
2017-12-14T01:48:16.480Z,1.7
2017-12-14T01:49:36.232Z,1.8
2017-12-14T01:50:56.022Z,1.8
2017-12-14T01:52:15.731Z,1.8
2017-12-14T01:53:35.507Z,1.8
2017-12-14T01:55:00.265Z,1.8
2017-12-14T01:56:19.975Z,1.8
2017-12-14T01:57:39.733Z,1.8
2017-12-14T01:58:59.476Z,1.8
2017-12-14T02:00:29.322Z,1.8
2017-12-14T02:01:49.024Z,1.8
2017-12-14T02:03:11.289Z,1.8
2017-12-14T02:04:33.587Z,1.8
2017-12-14T02:06:03.428Z,1.8
2017-12-14T02:07:35.875Z,1.8
2017-12-14T02:09:03.187Z,1.8
2017-12-14T02:10:27.968Z,1.7
2017-12-14T02:11:47.668Z,1.6
2017-12-14T02:13:17.482Z,1.7
2017-12-14T02:14:47.340Z,1.9
2017-12-14T02:16:09.597Z,1.9
2017-12-14T02:17:29.311Z,1.9
2017-12-14T02:18:49.016Z,1.9
2017-12-14T02:20:11.318Z,1.9
2017-12-14T02:21:41.236Z,1.7
2017-12-14T02:23:03.472Z,1.7
2017-12-14T02:24:23.168Z,1.6
2017-12-14T02:25:42.934Z,1.7
2017-12-14T02:27:02.651Z,1.8
2017-12-14T02:28:32.486Z,1.9
2017-12-14T02:29:59.820Z,2
2017-12-14T02:31:29.698Z,1.8
2017-12-14T02:33:04.596Z,1.8
2017-12-14T02:34:34.476Z,1.8
2017-12-14T02:35:54.175Z,1.8
2017-12-14T02:37:13.867Z,1.6
2017-12-14T02:38:33.626Z,1.5
2017-12-14T02:39:53.324Z,1.4
2017-12-14T02:41:15.613Z,1.4
2017-12-14T02:42:35.348Z,1.3
2017-12-14T02:43:57.626Z,1.3
2017-12-14T02:45:19.863Z,1.3
2017-12-14T02:46:47.150Z,1.4
2017-12-14T02:48:09.437Z,1.3
2017-12-14T02:49:34.283Z,1.3
2017-12-14T02:51:01.641Z,1.3
2017-12-14T02:52:21.355Z,1.2
2017-12-14T02:53:43.597Z,1.2
2017-12-14T02:55:10.969Z,1.2
2017-12-14T02:56:30.719Z,1.4
2017-12-14T02:57:50.416Z,1.3
2017-12-14T02:59:12.642Z,1.2
2017-12-14T03:00:32.346Z,1.2
2017-12-14T03:01:52.045Z,1.1
2017-12-14T03:03:11.800Z,1.3
2017-12-14T03:04:31.516Z,1.2
2017-12-14T03:05:51.261Z,1.2
2017-12-14T03:07:13.537Z,1.2
2017-12-14T03:08:35.807Z,1.2
2017-12-14T03:10:00.637Z,1.2
2017-12-14T03:11:25.410Z,1.2
2017-12-14T03:12:47.693Z,1.1
2017-12-14T03:14:07.442Z,1.1
2017-12-14T03:15:32.235Z,1.2
2017-12-14T03:16:54.491Z,1.2
2017-12-14T03:18:16.771Z,1.1
2017-12-14T03:19:39.035Z,1.1
2017-12-14T03:20:58.749Z,1.1
2017-12-14T03:22:18.521Z,1.1
2017-12-14T03:23:38.270Z,1.1
2017-12-14T03:25:00.519Z,1
2017-12-14T03:26:22.771Z,1.1
2017-12-14T03:27:45.010Z,1.2
2017-12-14T03:29:07.269Z,1.1
2017-12-14T03:30:27.000Z,1.2
2017-12-14T03:31:46.703Z,1.3
2017-12-14T03:33:08.947Z,1.4
2017-12-14T03:34:28.650Z,1.4
2017-12-14T03:35:48.354Z,1.4
2017-12-14T03:37:08.067Z,1.4
2017-12-14T03:38:27.797Z,1.4
2017-12-14T03:39:47.497Z,1.4
2017-12-14T03:41:07.227Z,1.3
2017-12-14T03:42:29.476Z,1.4
2017-12-14T03:43:51.724Z,1.5
2017-12-14T03:45:19.097Z,1.5
2017-12-14T03:46:43.892Z,1.5
2017-12-14T03:48:13.707Z,1.5
2017-12-14T03:49:41.088Z,1.6
2017-12-14T03:51:00.877Z,1.6
2017-12-14T03:52:23.110Z,1.7
2017-12-14T03:53:42.813Z,1.6
2017-12-14T03:55:02.537Z,1.5
2017-12-14T03:56:24.777Z,1.5
2017-12-14T03:57:49.530Z,1.5
2017-12-14T03:59:11.768Z,1.6
2017-12-14T04:00:31.490Z,1.7
2017-12-14T04:01:53.731Z,1.7
2017-12-14T04:03:15.985Z,1.7
2017-12-14T04:04:40.804Z,1.8
2017-12-14T04:06:00.570Z,1.9
2017-12-14T04:07:20.268Z,1.9
2017-12-14T04:08:39.988Z,1.9
2017-12-14T04:09:59.687Z,2
2017-12-14T04:11:24.482Z,2
2017-12-14T04:12:44.180Z,2
2017-12-14T04:14:14.048Z,2.1
2017-12-14T04:15:36.339Z,2.2
2017-12-14T04:16:58.615Z,2.2
2017-12-14T04:18:18.320Z,2.2
2017-12-14T04:19:50.712Z,2.2
2017-12-14T04:21:12.963Z,2.2
2017-12-14T04:22:37.738Z,2.2
2017-12-14T04:23:57.444Z,2.3
2017-12-14T04:25:19.717Z,2.3
2017-12-14T04:26:39.446Z,2.4
2017-12-14T04:28:04.241Z,2.4
2017-12-14T04:29:31.558Z,2.4
2017-12-14T04:30:58.853Z,2.4
2017-12-14T04:32:26.199Z,2.4
2017-12-14T04:33:48.440Z,2.4
2017-12-14T04:35:20.818Z,2.4
2017-12-14T04:36:43.051Z,2.4
2017-12-14T04:38:05.318Z,2.4
2017-12-14T04:39:27.578Z,2.4
2017-12-14T04:40:47.283Z,2.4
2017-12-14T04:42:09.524Z,2.4
2017-12-14T04:43:29.238Z,2.4
2017-12-14T04:44:48.950Z,2.4
2017-12-14T04:46:08.660Z,2.4
2017-12-14T04:47:28.360Z,2.4
2017-12-14T04:48:50.629Z,2.4
2017-12-14T04:50:15.492Z,2.4
2017-12-14T04:51:37.732Z,2.3
2017-12-14T04:52:57.438Z,2.3
2017-12-14T04:54:17.146Z,2.3
2017-12-14T04:55:39.379Z,2.4
2017-12-14T04:56:59.120Z,2.4
2017-12-14T04:58:18.834Z,2.4
2017-12-14T04:59:41.109Z,2.4
2017-12-14T05:01:00.939Z,2.5
2017-12-14T05:02:28.283Z,2.5
2017-12-14T05:03:50.548Z,2.5
2017-12-14T05:05:12.790Z,2.5
2017-12-14T05:06:35.115Z,2.4
2017-12-14T05:08:02.418Z,2.4
2017-12-14T05:09:37.300Z,2.4
2017-12-14T05:10:57.000Z,2.3
2017-12-14T05:12:16.719Z,2.3
2017-12-14T05:13:36.423Z,2.3
2017-12-14T05:14:56.128Z,2.3
2017-12-14T05:16:25.965Z,2.3
2017-12-14T05:17:48.217Z,2.2
2017-12-14T05:19:07.909Z,2.2
2017-12-14T05:20:27.642Z,2.2
2017-12-14T05:21:47.347Z,2.2
2017-12-14T05:23:19.713Z,2.2
2017-12-14T05:24:39.409Z,2.1
2017-12-14T05:26:01.660Z,2.1
2017-12-14T05:27:28.973Z,2.1
2017-12-14T05:28:48.699Z,2.1
2017-12-14T05:30:10.921Z,2.1
2017-12-14T05:31:33.163Z,2
2017-12-14T05:32:55.462Z,2
2017-12-14T05:34:20.283Z,2
2017-12-14T05:35:40.002Z,1.9
2017-12-14T05:37:02.253Z,1.8
2017-12-14T05:38:21.961Z,1.8
2017-12-14T05:39:46.770Z,1.7
2017-12-14T05:41:06.475Z,1.7
2017-12-14T05:42:28.728Z,1.7
2017-12-14T05:43:53.495Z,1.7
2017-12-14T05:45:20.811Z,1.7
2017-12-14T05:46:40.560Z,1.7
2017-12-14T05:48:00.312Z,1.7
2017-12-14T05:49:25.095Z,1.8
2017-12-14T05:50:47.333Z,1.8
2017-12-14T05:52:09.555Z,1.8
2017-12-14T05:53:34.328Z,1.8
2017-12-14T05:54:54.023Z,1.9
2017-12-14T05:56:13.741Z,1.9
2017-12-14T05:57:33.462Z,1.9
2017-12-14T05:58:53.198Z,2
2017-12-14T06:00:12.900Z,1.9
2017-12-14T06:01:32.627Z,1.9
2017-12-14T06:02:52.326Z,1.9
2017-12-14T06:04:12.098Z,1.9
2017-12-14T06:05:36.880Z,1.9
2017-12-14T06:07:09.244Z,1.9
2017-12-14T06:08:31.518Z,1.9
2017-12-14T06:09:53.764Z,1.9
2017-12-14T06:11:13.470Z,1.9
2017-12-14T06:12:33.218Z,1.9
2017-12-14T06:13:52.948Z,1.9
2017-12-14T06:15:12.689Z,1.9
2017-12-14T06:16:32.400Z,1.8
2017-12-14T06:17:54.655Z,1.8
2017-12-14T06:19:22.053Z,1.8
2017-12-14T06:20:44.275Z,1.5
2017-12-14T06:22:03.986Z,1.1
2017-12-14T06:23:23.703Z,1
2017-12-14T06:24:43.442Z,0.4
2017-12-14T06:26:05.673Z,0.4
2017-12-14T06:27:27.921Z,0.4
2017-12-14T06:28:47.625Z,0.5
2017-12-14T06:30:07.355Z,0.6
2017-12-14T06:31:32.119Z,0.5
2017-12-14T06:32:54.343Z,0.6
2017-12-14T06:34:16.601Z,0.7
2017-12-14T06:35:36.308Z,0.8
2017-12-14T06:36:56.020Z,0.9
2017-12-14T06:38:15.724Z,0.9
2017-12-14T06:39:35.467Z,0.9
2017-12-14T06:40:55.187Z,1
2017-12-14T06:42:14.977Z,1
2017-12-14T06:43:34.701Z,1
2017-12-14T06:44:54.418Z,1
2017-12-14T06:46:14.134Z,1
2017-12-14T06:47:33.897Z,1
2017-12-14T06:48:53.597Z,1
2017-12-14T06:50:13.317Z,1
2017-12-14T06:51:33.028Z,1
2017-12-14T06:52:55.335Z,1
2017-12-14T06:54:15.114Z,0.9
2017-12-14T06:55:39.933Z,0.8
2017-12-14T06:57:09.800Z,0.8
2017-12-14T06:58:29.500Z,0.8
2017-12-14T06:59:51.818Z,0.7
2017-12-14T07:01:11.536Z,0.7
2017-12-14T07:02:31.291Z,0.7
2017-12-14T07:03:56.064Z,0.9
2017-12-14T07:05:15.771Z,1
2017-12-14T07:06:35.510Z,1
2017-12-14T07:07:55.294Z,1
2017-12-14T07:09:20.083Z,1
2017-12-14T07:10:39.864Z,1
2017-12-14T07:11:59.589Z,1
2017-12-14T07:13:19.322Z,1.1
2017-12-14T07:14:39.054Z,1.1
2017-12-14T07:16:03.813Z,1.1
2017-12-14T07:17:31.137Z,1.1
2017-12-14T07:18:53.380Z,1.1
2017-12-14T07:20:18.179Z,1.2
2017-12-14T07:21:37.898Z,1.1
2017-12-14T07:23:00.204Z,1.1
2017-12-14T07:24:19.981Z,1.1
2017-12-14T07:25:39.768Z,1.1
2017-12-14T07:27:04.555Z,1.1
2017-12-14T07:28:24.262Z,1.1
2017-12-14T07:29:44.020Z,1.1
2017-12-14T07:31:03.760Z,1.1
2017-12-14T07:32:23.467Z,0.9
2017-12-14T07:33:43.190Z,1
2017-12-14T07:35:05.446Z,1
2017-12-14T07:36:30.222Z,1.1
2017-12-14T07:37:49.963Z,1.1
2017-12-14T07:39:12.243Z,1.1
2017-12-14T07:40:32.007Z,1.1
2017-12-14T07:41:54.256Z,1.1
2017-12-14T07:43:13.993Z,1.1
2017-12-14T07:44:33.745Z,1.1
2017-12-14T07:45:53.506Z,1.1
2017-12-14T07:47:13.204Z,1.1
2017-12-14T07:48:32.908Z,0.9
2017-12-14T07:49:52.703Z,0.9
2017-12-14T07:51:12.455Z,0.8
2017-12-14T07:52:37.222Z,0.8
2017-12-14T07:53:56.937Z,0.9
2017-12-14T07:55:16.671Z,0.9
2017-12-14T07:56:38.942Z,0.9
2017-12-14T07:58:06.255Z,0.9
2017-12-14T07:59:28.492Z,0.9
2017-12-14T08:00:55.791Z,0.9
2017-12-14T08:02:25.658Z,1
2017-12-14T08:03:47.895Z,0.9
2017-12-14T08:05:12.710Z,1
2017-12-14T08:06:37.486Z,1
2017-12-14T08:07:57.201Z,1
2017-12-14T08:09:19.480Z,1
2017-12-14T08:10:49.348Z,1
2017-12-14T08:12:14.120Z,1
2017-12-14T08:13:36.401Z,1
2017-12-14T08:14:56.104Z,1
2017-12-14T08:16:18.398Z,0.9
2017-12-14T08:17:38.144Z,0.9
2017-12-14T08:19:00.391Z,0.6
2017-12-14T08:20:25.175Z,0.5
2017-12-14T08:21:44.910Z,0.4
2017-12-14T08:23:09.708Z,0.4
2017-12-14T08:24:32.020Z,0.3
2017-12-14T08:25:54.261Z,0.4
2017-12-14T08:27:13.956Z,0.4
2017-12-14T08:28:36.185Z,0.5
2017-12-14T08:29:55.885Z,0.4
2017-12-14T08:31:15.582Z,0.4
2017-12-14T08:32:37.866Z,0.4
2017-12-14T08:34:10.240Z,0.5
2017-12-14T08:35:29.959Z,0.6
2017-12-14T08:36:49.694Z,0.4
2017-12-14T08:38:09.482Z,0.6
2017-12-14T08:39:29.218Z,0.6
2017-12-14T08:40:48.933Z,0.6
2017-12-14T08:42:13.747Z,0.7
2017-12-14T08:43:33.450Z,0.7
2017-12-14T08:45:03.287Z,0.8
2017-12-14T08:46:25.512Z,0.8
2017-12-14T08:47:47.777Z,0.8
2017-12-14T08:49:22.679Z,0.9
2017-12-14T08:50:50.056Z,0.9
2017-12-14T08:52:12.302Z,1
2017-12-14T08:53:32.012Z,1
2017-12-14T08:54:51.741Z,1
2017-12-14T08:56:11.469Z,1
2017-12-14T08:57:36.301Z,1.1
2017-12-14T08:59:01.075Z,1.1
2017-12-14T09:00:25.838Z,1.1
2017-12-14T09:01:45.556Z,1.1
2017-12-14T09:03:05.250Z,0.9
2017-12-14T09:04:24.957Z,1
2017-12-14T09:05:44.684Z,1
2017-12-14T09:07:06.967Z,1.1
2017-12-14T09:08:31.771Z,1.1
2017-12-14T09:09:51.479Z,1.2
2017-12-14T09:11:13.764Z,1.3
2017-12-14T09:12:36.068Z,1.4
2017-12-14T09:13:55.762Z,1.4
2017-12-14T09:15:15.512Z,1.3
2017-12-14T09:16:35.207Z,1.3
2017-12-14T09:18:17.708Z,1.4
2017-12-14T09:19:47.554Z,1.4
2017-12-14T09:21:07.264Z,1.6
2017-12-14T09:22:26.971Z,1.6
2017-12-14T09:23:51.745Z,1.6
2017-12-14T09:25:16.575Z,1.6
2017-12-14T09:26:36.286Z,1.5
2017-12-14T09:27:56.011Z,1.2
2017-12-14T09:29:15.748Z,1
2017-12-14T09:30:35.439Z,0.9
2017-12-14T09:32:02.732Z,0.9
2017-12-14T09:33:22.456Z,1
2017-12-14T09:34:47.221Z,1.1
2017-12-14T09:36:14.603Z,1
2017-12-14T09:37:36.843Z,1
2017-12-14T09:38:59.170Z,1.1
2017-12-14T09:40:18.882Z,1
2017-12-14T09:41:38.641Z,1.1
2017-12-14T09:43:00.876Z,1.2
2017-12-14T09:44:20.577Z,1.3
2017-12-14T09:45:40.301Z,1.2
2017-12-14T09:47:02.583Z,1.1
2017-12-14T09:48:27.366Z,1.2
2017-12-14T09:49:47.068Z,1.2
2017-12-14T09:51:06.813Z,1.3
2017-12-14T09:52:34.130Z,1.2
2017-12-14T09:53:53.871Z,1.3
2017-12-14T09:55:13.569Z,1.4
2017-12-14T09:56:33.284Z,1.6
2017-12-14T09:57:58.077Z,1.3
2017-12-14T09:59:20.305Z,1.1
2017-12-14T10:00:40.008Z,1.1
2017-12-14T10:02:04.849Z,1.1
2017-12-14T10:03:27.086Z,1.1
2017-12-14T10:04:46.796Z,1.1
2017-12-14T10:06:06.493Z,1.2
2017-12-14T10:07:26.219Z,1.3
2017-12-14T10:08:53.519Z,1.3
2017-12-14T10:10:13.266Z,1.4
2017-12-14T10:11:40.579Z,1.4
2017-12-14T10:13:00.308Z,1.4
2017-12-14T10:14:22.576Z,1.5
2017-12-14T10:15:42.337Z,1.7
2017-12-14T10:17:09.661Z,1.9
2017-12-14T10:18:29.392Z,1.9
2017-12-14T10:19:56.692Z,1.8
2017-12-14T10:21:21.505Z,1.6
2017-12-14T10:22:58.971Z,1.5
2017-12-14T10:24:18.733Z,1.5
2017-12-14T10:25:40.952Z,1.4
2017-12-14T10:27:00.710Z,1.4
2017-12-14T10:28:20.453Z,1.4
2017-12-14T10:29:42.744Z,1.4
2017-12-14T10:31:02.457Z,1.5
2017-12-14T10:32:24.697Z,1.5
2017-12-14T10:33:52.044Z,1.3
2017-12-14T10:35:11.753Z,1.3
2017-12-14T10:36:34.025Z,1.3
2017-12-14T10:37:53.753Z,1.4
2017-12-14T10:39:13.446Z,1.4
2017-12-14T10:40:33.167Z,1.4
2017-12-14T10:41:52.881Z,1.4
2017-12-14T10:43:15.161Z,1.3
2017-12-14T10:44:37.428Z,1.2
2017-12-14T10:46:07.282Z,1.3
2017-12-14T10:47:32.096Z,1.3
2017-12-14T10:48:51.854Z,1.6
2017-12-14T10:50:11.557Z,1.8
2017-12-14T10:51:31.281Z,2.1
2017-12-14T10:52:50.993Z,2.3
2017-12-14T10:54:10.694Z,2.5
2017-12-14T10:55:32.925Z,2.4
2017-12-14T10:56:52.696Z,2.4
2017-12-14T10:58:12.453Z,2.3
2017-12-14T10:59:32.179Z,2.4
2017-12-14T11:00:56.960Z,2.3
2017-12-14T11:02:16.726Z,2.4
2017-12-14T11:03:41.538Z,2.4
2017-12-14T11:05:01.256Z,2.4
2017-12-14T11:06:20.970Z,2.4
2017-12-14T11:07:40.690Z,2.4
2017-12-14T11:09:00.404Z,2.2
2017-12-14T11:10:27.734Z,2.1
2017-12-14T11:11:57.598Z,2
2017-12-14T11:13:27.413Z,2
2017-12-14T11:14:47.117Z,2
2017-12-14T11:16:09.391Z,1.9
2017-12-14T11:17:39.281Z,1.8
2017-12-14T11:19:01.515Z,1.8
2017-12-14T11:20:23.789Z,1.8
2017-12-14T11:21:48.572Z,1.8
2017-12-14T11:23:08.284Z,2
2017-12-14T11:24:38.123Z,2.1
2017-12-14T11:25:57.899Z,2.1
2017-12-14T11:27:17.651Z,2.1
2017-12-14T11:28:37.358Z,2.1
2017-12-14T11:29:59.646Z,2.1
2017-12-14T11:31:21.891Z,2.1
2017-12-14T11:32:46.690Z,2.1
2017-12-14T11:34:06.385Z,2.2
2017-12-14T11:35:26.096Z,2.2
2017-12-14T11:36:45.807Z,2.3
2017-12-14T11:38:05.499Z,2.4
2017-12-14T11:39:27.794Z,2.5
2017-12-14T11:40:47.525Z,2.6
2017-12-14T11:42:12.303Z,2.6
2017-12-14T11:43:34.546Z,2.6
2017-12-14T11:44:54.302Z,2.6
2017-12-14T11:46:14.072Z,2.7
2017-12-14T11:47:36.359Z,2.7
2017-12-14T11:49:06.194Z,2.8
2017-12-14T11:50:28.445Z,2.8
2017-12-14T11:51:48.162Z,2.7
2017-12-14T11:53:10.421Z,2.8
2017-12-14T11:54:30.161Z,2.7
2017-12-14T11:55:52.400Z,2.7
2017-12-14T11:57:14.656Z,2.7
2017-12-14T11:58:36.911Z,2.8
2017-12-14T11:59:56.652Z,2.8
2017-12-14T12:01:26.521Z,2.7
2017-12-14T12:02:46.269Z,2.7
2017-12-14T12:04:05.967Z,2.8
2017-12-14T12:05:25.730Z,2.9
2017-12-14T12:07:03.208Z,3
2017-12-14T12:08:30.582Z,3
2017-12-14T12:09:52.834Z,3
2017-12-14T12:11:12.545Z,3
2017-12-14T12:12:34.790Z,3.2
2017-12-14T12:14:02.115Z,3.1
2017-12-14T12:15:26.924Z,3.1
2017-12-14T12:16:51.708Z,3.2
2017-12-14T12:18:13.978Z,3
2017-12-14T12:19:36.268Z,2.9
2017-12-14T12:20:55.985Z,2.8
2017-12-14T12:22:15.680Z,2.7
2017-12-14T12:23:35.433Z,2.7
2017-12-14T12:24:57.725Z,2.6
2017-12-14T12:26:17.430Z,2.6
2017-12-14T12:27:39.659Z,2.6
2017-12-14T12:28:59.376Z,2.6
2017-12-14T12:30:21.656Z,2.6
2017-12-14T12:31:41.411Z,2.6
2017-12-14T12:33:01.165Z,2.6
2017-12-14T12:34:25.946Z,2.6
2017-12-14T12:35:53.284Z,2.5
2017-12-14T12:37:18.033Z,2.4
2017-12-14T12:38:42.853Z,2.3
2017-12-14T12:40:05.096Z,2.2
2017-12-14T12:41:27.333Z,2.2
2017-12-14T12:42:47.078Z,2.2
2017-12-14T12:44:06.809Z,2.1
2017-12-14T12:45:29.066Z,2.2
2017-12-14T12:46:48.822Z,2.2
2017-12-14T12:48:11.100Z,2.2
2017-12-14T12:49:35.869Z,2.2
2017-12-14T12:50:55.564Z,2.2
2017-12-14T12:52:17.843Z,2.2
2017-12-14T12:53:42.648Z,2.3
2017-12-14T12:55:12.512Z,2.3
2017-12-14T12:56:34.776Z,2.4
2017-12-14T12:57:54.485Z,2.4
2017-12-14T12:59:19.253Z,2.4
2017-12-14T13:00:39.016Z,2.4
2017-12-14T13:02:16.431Z,2.4
2017-12-14T13:03:38.716Z,2.4
2017-12-14T13:04:58.468Z,2.4
2017-12-14T13:06:20.713Z,2.4
2017-12-14T13:07:42.948Z,2.4
2017-12-14T13:09:02.755Z,2.5
2017-12-14T13:10:25.040Z,2.5
2017-12-14T13:11:44.745Z,2.4
2017-12-14T13:13:04.483Z,2.4
2017-12-14T13:14:24.232Z,2.4
2017-12-14T13:15:46.501Z,2.4
2017-12-14T13:17:08.760Z,2.4
2017-12-14T13:18:33.603Z,2.3
2017-12-14T13:19:53.351Z,2.3
2017-12-14T13:21:15.580Z,2.3
2017-12-14T13:22:37.818Z,2.3
2017-12-14T13:24:00.102Z,2.4
2017-12-14T13:25:19.825Z,2.4
2017-12-14T13:26:39.555Z,2.4
2017-12-14T13:27:59.256Z,2.4
2017-12-14T13:29:24.028Z,2.4
2017-12-14T13:30:43.771Z,2.4
2017-12-14T13:32:08.573Z,2.4
2017-12-14T13:33:28.298Z,2.4
2017-12-14T13:34:48.024Z,2.4
2017-12-14T13:36:15.337Z,2.4
2017-12-14T13:37:37.638Z,2.4
2017-12-14T13:38:57.370Z,2.4
2017-12-14T13:40:22.123Z,2.4
2017-12-14T13:41:46.900Z,2.4
2017-12-14T13:43:11.703Z,2.4
2017-12-14T13:44:31.403Z,2.4
2017-12-14T13:45:51.104Z,2.4
2017-12-14T13:47:13.397Z,2.4
2017-12-14T13:48:33.129Z,2.4
2017-12-14T13:49:52.839Z,2.4
2017-12-14T13:51:15.128Z,2.4
2017-12-14T13:52:37.424Z,2.4
2017-12-14T13:53:59.677Z,2.5
2017-12-14T13:55:21.923Z,2.5
2017-12-14T13:56:41.631Z,2.5
2017-12-14T13:58:01.334Z,2.4
2017-12-14T13:59:23.587Z,2.3
2017-12-14T14:00:43.340Z,2.3
2017-12-14T14:02:05.574Z,2.2
2017-12-14T14:03:25.338Z,2.2
2017-12-14T14:04:45.043Z,2.2
2017-12-14T14:06:04.732Z,2.1
2017-12-14T14:07:24.441Z,2.1
2017-12-14T14:08:46.709Z,2.1
2017-12-14T14:10:06.419Z,2
2017-12-14T14:11:28.670Z,2
2017-12-14T14:12:48.406Z,2
2017-12-14T14:14:08.201Z,2
2017-12-14T14:15:30.462Z,2
2017-12-14T14:16:55.227Z,2
2017-12-14T14:18:17.452Z,2
2017-12-14T14:19:39.742Z,2
2017-12-14T14:21:12.148Z,2
2017-12-14T14:22:31.857Z,1.9
2017-12-14T14:23:51.573Z,1.9
2017-12-14T14:25:13.880Z,1.9
2017-12-14T14:26:36.124Z,1.9
2017-12-14T14:27:58.445Z,2
2017-12-14T14:29:18.169Z,1.9
2017-12-14T14:30:37.907Z,1.9
2017-12-14T14:31:57.606Z,1.8
2017-12-14T14:33:32.569Z,1.8
2017-12-14T14:34:57.398Z,1.8
2017-12-14T14:36:17.113Z,1.8
2017-12-14T14:37:39.343Z,1.8
2017-12-14T14:39:11.678Z,1.8
2017-12-14T14:40:31.444Z,1.8
2017-12-14T14:41:53.706Z,1.8
2017-12-14T14:43:23.567Z,1.8
2017-12-14T14:44:43.346Z,1.7
2017-12-14T14:46:03.061Z,1.7
2017-12-14T14:47:22.868Z,1.7
2017-12-14T14:48:42.628Z,1.7
2017-12-14T14:50:02.328Z,1.7
2017-12-14T14:51:22.077Z,1.7
2017-12-14T14:52:41.815Z,1.6
2017-12-14T14:54:06.585Z,1.6
2017-12-14T14:55:28.828Z,1.6
2017-12-14T14:56:56.157Z,1.6
2017-12-14T14:58:20.945Z,1.6
2017-12-14T14:59:48.286Z,1.7
2017-12-14T15:01:08.015Z,1.7
2017-12-14T15:02:27.755Z,1.7
2017-12-14T15:03:50.050Z,1.7
2017-12-14T15:05:17.399Z,1.7
2017-12-14T15:06:37.132Z,1.7
2017-12-14T15:08:01.949Z,1.7
2017-12-14T15:09:21.681Z,1.7
2017-12-14T15:10:41.385Z,1.6
2017-12-14T15:12:01.144Z,1.7
2017-12-14T15:13:20.898Z,1.6
2017-12-14T15:14:45.694Z,1.7
2017-12-14T15:16:05.389Z,1.7
2017-12-14T15:17:27.786Z,1.7
2017-12-14T15:18:47.524Z,1.7
2017-12-14T15:20:09.775Z,1.6
2017-12-14T15:21:29.510Z,1.7
2017-12-14T15:22:51.750Z,1.6
2017-12-14T15:24:11.466Z,1.6
2017-12-14T15:25:33.748Z,1.5
2017-12-14T15:26:53.493Z,1.5
2017-12-14T15:28:20.807Z,1.6
2017-12-14T15:29:40.503Z,1.5
2017-12-14T15:31:00.215Z,1.5
2017-12-14T15:32:19.914Z,1.5
2017-12-14T15:33:42.136Z,1.5
2017-12-14T15:35:06.905Z,1.4
2017-12-14T15:36:26.653Z,1.4
2017-12-14T15:37:48.891Z,1.4
2017-12-14T15:39:11.133Z,1.4
2017-12-14T15:40:35.904Z,1.4
2017-12-14T15:42:13.387Z,1.5
2017-12-14T15:43:35.648Z,1.4
2017-12-14T15:44:55.394Z,1.4
2017-12-14T15:46:20.148Z,1.4
2017-12-14T15:47:39.869Z,1.4
2017-12-14T15:48:59.606Z,1.4
2017-12-14T15:50:19.324Z,1.3
2017-12-14T15:51:39.021Z,1.3
2017-12-14T15:53:01.331Z,1.4
2017-12-14T15:54:21.040Z,1.4
2017-12-14T15:55:40.734Z,1.5
2017-12-14T15:57:05.494Z,1.5
2017-12-14T15:58:27.816Z,1.5
2017-12-14T15:59:47.565Z,1.5
2017-12-14T16:01:14.863Z,1.5
2017-12-14T16:02:34.564Z,1.5
2017-12-14T16:03:54.269Z,1.5
2017-12-14T16:05:19.032Z,1.5
2017-12-14T16:06:38.745Z,1.6
2017-12-14T16:07:58.444Z,1.6
2017-12-14T16:09:20.692Z,1.6
2017-12-14T16:10:40.386Z,1.6
2017-12-14T16:12:00.094Z,1.6
2017-12-14T16:13:19.810Z,1.6
2017-12-14T16:14:54.712Z,1.6
2017-12-14T16:16:14.413Z,1.6
2017-12-14T16:17:36.703Z,1.6
2017-12-14T16:18:56.412Z,1.6
2017-12-14T16:20:16.122Z,1.6
2017-12-14T16:21:40.894Z,1.6
2017-12-14T16:23:03.151Z,1.6
2017-12-14T16:24:22.919Z,1.6
2017-12-14T16:25:42.668Z,1.6
2017-12-14T16:27:04.948Z,1.6
2017-12-14T16:28:27.192Z,1.6
2017-12-14T16:29:46.914Z,1.6
2017-12-14T16:31:06.699Z,1.5
2017-12-14T16:32:28.929Z,1.5
2017-12-14T16:33:53.681Z,1.5
2017-12-14T16:35:13.374Z,1.6
2017-12-14T16:36:38.141Z,1.6
2017-12-14T16:37:57.856Z,1.5
2017-12-14T16:39:17.607Z,1.6
2017-12-14T16:40:39.836Z,1.5
2017-12-14T16:42:04.621Z,1.5
2017-12-14T16:43:24.332Z,1.5
2017-12-14T16:44:44.034Z,1.4
2017-12-14T16:46:06.268Z,1.3
2017-12-14T16:47:28.553Z,1.3
2017-12-14T16:48:48.266Z,1.4
2017-12-14T16:50:08.002Z,1.4
2017-12-14T16:51:27.725Z,1.4
2017-12-14T16:52:57.584Z,1.4
2017-12-14T16:54:17.318Z,1.3
2017-12-14T16:55:39.612Z,1.4
2017-12-14T16:57:01.872Z,1.4
2017-12-14T16:58:21.615Z,1.5
2017-12-14T16:59:41.331Z,1.4
2017-12-14T17:01:01.032Z,1.4
2017-12-14T17:02:30.889Z,1.4
2017-12-14T17:03:50.619Z,1.4
2017-12-14T17:05:15.372Z,1.4
2017-12-14T17:06:40.134Z,1.4
2017-12-14T17:08:02.414Z,1.3
2017-12-14T17:09:24.646Z,1.3
2017-12-14T17:10:44.366Z,1.3
2017-12-14T17:12:04.062Z,1.2
2017-12-14T17:13:23.772Z,1.2
2017-12-14T17:14:51.148Z,1.3
2017-12-14T17:16:13.373Z,1.4
2017-12-14T17:17:35.617Z,1.3
2017-12-14T17:18:55.362Z,1.4
2017-12-14T17:20:17.668Z,1.4
2017-12-14T17:21:37.405Z,1.4
2017-12-14T17:22:57.120Z,1.5
2017-12-14T17:24:21.885Z,1.5
2017-12-14T17:25:54.319Z,1.5
2017-12-14T17:27:19.091Z,1.5
2017-12-14T17:28:38.783Z,1.5
2017-12-14T17:30:01.032Z,1.4
2017-12-14T17:31:25.816Z,1.4
2017-12-14T17:32:45.554Z,1.4
2017-12-14T17:34:05.260Z,1.2
2017-12-14T17:35:27.560Z,1.1
2017-12-14T17:36:47.314Z,1
2017-12-14T17:38:09.567Z,1
2017-12-14T17:39:29.262Z,1
2017-12-14T17:40:51.501Z,0.9
2017-12-14T17:42:13.741Z,0.8
2017-12-14T17:43:33.475Z,0.7
2017-12-14T17:44:53.172Z,0.7
2017-12-14T17:46:12.885Z,0.6
2017-12-14T17:47:35.134Z,0.5
2017-12-14T17:49:04.988Z,0.6
2017-12-14T17:50:24.704Z,0.7
2017-12-14T17:51:44.402Z,0.8
2017-12-14T17:53:04.119Z,0.8
2017-12-14T17:54:23.865Z,0.8
2017-12-14T17:55:43.592Z,0.7
2017-12-14T17:57:10.892Z,0.8
2017-12-14T17:58:38.210Z,0.7
2017-12-14T18:00:00.452Z,0.7
2017-12-14T18:01:20.149Z,0.9
2017-12-14T18:02:42.447Z,0.9
2017-12-14T18:04:02.195Z,0.9
2017-12-14T18:05:24.453Z,0.9
2017-12-14T18:06:51.823Z,0.9
2017-12-14T18:08:11.532Z,0.8
2017-12-14T18:09:31.298Z,0.8
2017-12-14T18:10:53.527Z,0.7
2017-12-14T18:12:13.227Z,0.7
2017-12-14T18:13:35.468Z,0.7
2017-12-14T18:14:55.241Z,0.6
2017-12-14T18:16:14.948Z,0.6
2017-12-14T18:17:44.795Z,0.6
2017-12-14T18:19:07.044Z,0.6
2017-12-14T18:20:26.776Z,0.6
2017-12-14T18:21:46.484Z,0.6
2017-12-14T18:23:06.248Z,0.7
2017-12-14T18:24:25.956Z,0.7
2017-12-14T18:25:50.783Z,0.6
2017-12-14T18:27:10.485Z,0.6
2017-12-14T18:28:30.182Z,0.5
2017-12-14T18:30:02.598Z,0.4
2017-12-14T18:31:22.387Z,0.4
2017-12-14T18:32:42.122Z,0.5
2017-12-14T18:34:04.381Z,0.3
2017-12-14T18:35:31.721Z,0.3
2017-12-14T18:36:51.454Z,0.3
2017-12-14T18:38:11.173Z,0.3
2017-12-14T18:39:33.403Z,0.3
2017-12-14T18:40:55.644Z,0.2
2017-12-14T18:42:15.403Z,0.2
2017-12-14T18:43:37.648Z,0.2
2017-12-14T18:44:59.897Z,0.2
2017-12-14T18:46:19.646Z,0.3
2017-12-14T18:47:39.353Z,0.3
2017-12-14T18:49:04.106Z,0.3
2017-12-14T18:50:28.868Z,0.3
2017-12-14T18:51:53.683Z,0.2
2017-12-14T18:53:13.463Z,0.3
2017-12-14T18:54:38.240Z,0.3
2017-12-14T18:56:00.459Z,0.3
2017-12-14T18:57:20.215Z,0.3
2017-12-14T18:58:42.523Z,0.3
2017-12-14T19:00:02.262Z,0.3